sensor_id;sensor_type;location;lat;lon;timestamp;temperature;humidity
37998;DHT22;24079;51.824;4.682;2023-02-12T00:02:17;8.80;99.90
37998;DHT22;24079;51.824;4.682;2023-02-12T00:04:43;8.80;99.90
37998;DHT22;24079;51.824;4.682;2023-02-12T00:07:09;8.80;99.90
37998;DHT22;24079;51.824;4.682;2023-02-12T00:09:36;8.70;99.90
37998;DHT22;24079;51.824;4.682;2023-02-12T00:12:02;8.70;99.90
37998;DHT22;24079;51.824;4.682;2023-02-12T00:14:28;8.70;99.90
37998;DHT22;24079;51.824;4.682;2023-02-12T00:16:53;8.70;99.90
37998;DHT22;24079;51.824;4.682;2023-02-12T00:19:19;8.70;99.90
37998;DHT22;24079;51.824;4.682;2023-02-12T00:21:44;8.70;99.90
37998;DHT22;24079;51.824;4.682;2023-02-12T00:24:10;8.70;99.90
37998;DHT22;24079;51.824;4.682;2023-02-12T00:26:36;8.70;99.90
37998;DHT22;24079;51.824;4.682;2023-02-12T00:29:01;8.70;99.90
37998;DHT22;24079;51.824;4.682;2023-02-12T00:31:29;8.70;99.90
37998;DHT22;24079;51.824;4.682;2023-02-12T00:33:55;8.70;99.90
37998;DHT22;24079;51.824;4.682;2023-02-12T00:36:24;8.70;99.90
37998;DHT22;24079;51.824;4.682;2023-02-12T00:38:52;8.70;99.90
37998;DHT22;24079;51.824;4.682;2023-02-12T00:41:18;8.70;99.90
37998;DHT22;24079;51.824;4.682;2023-02-12T00:43:44;8.70;99.90
37998;DHT22;24079;51.824;4.682;2023-02-12T00:46:10;8.70;99.90
37998;DHT22;24079;51.824;4.682;2023-02-12T00:48:36;8.70;99.90
37998;DHT22;24079;51.824;4.682;2023-02-12T00:51:02;8.70;99.90
37998;DHT22;24079;51.824;4.682;2023-02-12T00:53:29;8.70;99.90
37998;DHT22;24079;51.824;4.682;2023-02-12T00:55:54;8.70;99.90
37998;DHT22;24079;51.824;4.682;2023-02-12T00:58:20;8.70;99.90
37998;DHT22;24079;51.824;4.682;2023-02-12T01:00:46;8.70;99.90
37998;DHT22;24079;51.824;4.682;2023-02-12T01:03:12;8.70;99.90
37998;DHT22;24079;51.824;4.682;2023-02-12T01:05:38;8.70;99.90
37998;DHT22;24079;51.824;4.682;2023-02-12T01:08:04;8.70;99.90
37998;DHT22;24079;51.824;4.682;2023-02-12T01:10:30;8.70;99.90
37998;DHT22;24079;51.824;4.682;2023-02-12T01:12:56;8.70;99.90
37998;DHT22;24079;51.824;4.682;2023-02-12T01:15:22;8.70;99.90
37998;DHT22;24079;51.824;4.682;2023-02-12T01:17:50;8.70;99.90
37998;DHT22;24079;51.824;4.682;2023-02-12T01:20:17;8.80;99.90
37998;DHT22;24079;51.824;4.682;2023-02-12T01:22:43;8.70;99.90
37998;DHT22;24079;51.824;4.682;2023-02-12T01:25:09;8.70;99.90
37998;DHT22;24079;51.824;4.682;2023-02-12T01:27:34;8.70;99.90
37998;DHT22;24079;51.824;4.682;2023-02-12T01:30:00;8.70;99.90
37998;DHT22;24079;51.824;4.682;2023-02-12T01:32:26;8.70;99.90
37998;DHT22;24079;51.824;4.682;2023-02-12T01:34:52;8.70;99.90
37998;DHT22;24079;51.824;4.682;2023-02-12T01:37:18;8.60;99.90
37998;DHT22;24079;51.824;4.682;2023-02-12T01:39:43;8.60;99.90
37998;DHT22;24079;51.824;4.682;2023-02-12T01:42:12;8.70;99.90
37998;DHT22;24079;51.824;4.682;2023-02-12T01:45:22;8.60;99.90
37998;DHT22;24079;51.824;4.682;2023-02-12T01:47:30;8.70;99.90
37998;DHT22;24079;51.824;4.682;2023-02-12T01:49:56;8.60;99.90
37998;DHT22;24079;51.824;4.682;2023-02-12T01:52:23;8.60;99.90
37998;DHT22;24079;51.824;4.682;2023-02-12T01:54:51;8.60;99.90
37998;DHT22;24079;51.824;4.682;2023-02-12T01:57:17;8.60;99.90
37998;DHT22;24079;51.824;4.682;2023-02-12T01:59:44;8.60;99.90
37998;DHT22;24079;51.824;4.682;2023-02-12T02:02:11;8.60;99.90
37998;DHT22;24079;51.824;4.682;2023-02-12T02:04:44;8.60;99.90
37998;DHT22;24079;51.824;4.682;2023-02-12T02:07:11;8.60;99.90
37998;DHT22;24079;51.824;4.682;2023-02-12T02:09:38;8.50;99.90
37998;DHT22;24079;51.824;4.682;2023-02-12T02:12:05;8.50;99.90
37998;DHT22;24079;51.824;4.682;2023-02-12T02:14:51;8.50;99.90
37998;DHT22;24079;51.824;4.682;2023-02-12T02:20:25;8.50;99.90
37998;DHT22;24079;51.824;4.682;2023-02-12T02:28:52;8.70;99.90
37998;DHT22;24079;51.824;4.682;2023-02-12T02:37:15;8.50;99.90
37998;DHT22;24079;51.824;4.682;2023-02-12T02:39:54;8.50;99.90
37998;DHT22;24079;51.824;4.682;2023-02-12T02:42:28;8.50;99.90
37998;DHT22;24079;51.824;4.682;2023-02-12T02:47:51;8.40;99.90
37998;DHT22;24079;51.824;4.682;2023-02-12T02:50:20;8.40;99.90
37998;DHT22;24079;51.824;4.682;2023-02-12T02:52:54;8.50;99.90
37998;DHT22;24079;51.824;4.682;2023-02-12T02:55:24;8.50;99.90
37998;DHT22;24079;51.824;4.682;2023-02-12T02:58:16;8.50;99.90
37998;DHT22;24079;51.824;4.682;2023-02-12T03:00:52;8.40;99.90
37998;DHT22;24079;51.824;4.682;2023-02-12T03:03:30;8.40;99.90
37998;DHT22;24079;51.824;4.682;2023-02-12T03:06:09;8.40;99.90
37998;DHT22;24079;51.824;4.682;2023-02-12T03:08:40;8.50;99.90
37998;DHT22;24079;51.824;4.682;2023-02-12T03:11:14;8.40;99.90
37998;DHT22;24079;51.824;4.682;2023-02-12T03:16:32;8.40;99.90
37998;DHT22;24079;51.824;4.682;2023-02-12T03:19:10;8.40;99.90
37998;DHT22;24079;51.824;4.682;2023-02-12T03:21:46;8.40;99.90
37998;DHT22;24079;51.824;4.682;2023-02-12T03:24:35;8.40;99.90
37998;DHT22;24079;51.824;4.682;2023-02-12T03:27:07;8.40;99.90
37998;DHT22;24079;51.824;4.682;2023-02-12T03:29:34;8.40;99.90
37998;DHT22;24079;51.824;4.682;2023-02-12T03:37:45;8.40;99.90
37998;DHT22;24079;51.824;4.682;2023-02-12T03:43:07;8.30;99.90
37998;DHT22;24079;51.824;4.682;2023-02-12T03:46:00;8.30;99.90
37998;DHT22;24079;51.824;4.682;2023-02-12T03:49:03;8.40;99.90
37998;DHT22;24079;51.824;4.682;2023-02-12T03:51:37;8.40;99.90
37998;DHT22;24079;51.824;4.682;2023-02-12T03:54:03;8.40;99.90
37998;DHT22;24079;51.824;4.682;2023-02-12T03:57:00;8.50;99.90
37998;DHT22;24079;51.824;4.682;2023-02-12T03:59:26;8.50;99.90
37998;DHT22;24079;51.824;4.682;2023-02-12T04:01:54;8.50;99.90
37998;DHT22;24079;51.824;4.682;2023-02-12T04:04:20;8.60;99.90
37998;DHT22;24079;51.824;4.682;2023-02-12T04:06:48;8.60;99.90
37998;DHT22;24079;51.824;4.682;2023-02-12T04:09:14;8.60;99.90
37998;DHT22;24079;51.824;4.682;2023-02-12T04:27:51;8.40;99.90
37998;DHT22;24079;51.824;4.682;2023-02-12T04:30:28;8.40;99.90
37998;DHT22;24079;51.824;4.682;2023-02-12T04:32:59;8.30;99.90
37998;DHT22;24079;51.824;4.682;2023-02-12T04:40:38;8.20;99.90
37998;DHT22;24079;51.824;4.682;2023-02-12T04:43:05;8.20;99.90
37998;DHT22;24079;51.824;4.682;2023-02-12T04:45:33;8.20;99.90
37998;DHT22;24079;51.824;4.682;2023-02-12T04:47:59;8.20;99.90
37998;DHT22;24079;51.824;4.682;2023-02-12T04:50:26;8.30;99.90
37998;DHT22;24079;51.824;4.682;2023-02-12T04:52:53;8.30;99.90
37998;DHT22;24079;51.824;4.682;2023-02-12T04:55:19;8.20;99.90
37998;DHT22;24079;51.824;4.682;2023-02-12T04:57:46;8.20;99.90
37998;DHT22;24079;51.824;4.682;2023-02-12T05:00:13;8.20;99.90
37998;DHT22;24079;51.824;4.682;2023-02-12T05:02:39;8.20;99.90
37998;DHT22;24079;51.824;4.682;2023-02-12T05:05:05;8.20;99.90
37998;DHT22;24079;51.824;4.682;2023-02-12T05:07:32;8.20;99.90
37998;DHT22;24079;51.824;4.682;2023-02-12T05:09:57;8.20;99.90
37998;DHT22;24079;51.824;4.682;2023-02-12T05:12:24;8.20;99.90
37998;DHT22;24079;51.824;4.682;2023-02-12T05:14:50;8.20;99.90
37998;DHT22;24079;51.824;4.682;2023-02-12T05:17:16;8.20;99.90
37998;DHT22;24079;51.824;4.682;2023-02-12T05:19:42;8.20;99.90
37998;DHT22;24079;51.824;4.682;2023-02-12T05:22:08;8.30;99.90
37998;DHT22;24079;51.824;4.682;2023-02-12T05:24:34;8.20;99.90
37998;DHT22;24079;51.824;4.682;2023-02-12T05:26:59;8.20;99.90
37998;DHT22;24079;51.824;4.682;2023-02-12T05:29:25;8.20;99.90
37998;DHT22;24079;51.824;4.682;2023-02-12T05:31:50;8.20;99.90
37998;DHT22;24079;51.824;4.682;2023-02-12T05:34:16;8.30;99.90
37998;DHT22;24079;51.824;4.682;2023-02-12T05:36:42;8.20;99.90
37998;DHT22;24079;51.824;4.682;2023-02-12T05:39:07;8.20;99.90
37998;DHT22;24079;51.824;4.682;2023-02-12T05:41:34;8.20;99.90
37998;DHT22;24079;51.824;4.682;2023-02-12T05:44:04;8.20;99.90
37998;DHT22;24079;51.824;4.682;2023-02-12T05:46:30;8.20;99.90
37998;DHT22;24079;51.824;4.682;2023-02-12T05:48:57;8.20;99.90
37998;DHT22;24079;51.824;4.682;2023-02-12T05:51:24;8.20;99.90
37998;DHT22;24079;51.824;4.682;2023-02-12T05:53:54;8.20;99.90
37998;DHT22;24079;51.824;4.682;2023-02-12T05:56:24;8.10;99.90
37998;DHT22;24079;51.824;4.682;2023-02-12T05:59:16;8.10;99.90
37998;DHT22;24079;51.824;4.682;2023-02-12T06:01:44;8.10;99.90
37998;DHT22;24079;51.824;4.682;2023-02-12T06:04:24;8.10;99.90
37998;DHT22;24079;51.824;4.682;2023-02-12T06:06:52;8.10;99.90
37998;DHT22;24079;51.824;4.682;2023-02-12T06:09:18;8.20;99.90
37998;DHT22;24079;51.824;4.682;2023-02-12T06:11:44;8.10;99.90
37998;DHT22;24079;51.824;4.682;2023-02-12T06:14:14;8.10;99.90
37998;DHT22;24079;51.824;4.682;2023-02-12T06:16:42;8.20;99.90
37998;DHT22;24079;51.824;4.682;2023-02-12T06:19:08;8.10;99.90
37998;DHT22;24079;51.824;4.682;2023-02-12T06:21:34;8.10;99.90
37998;DHT22;24079;51.824;4.682;2023-02-12T06:24:00;8.10;99.90
37998;DHT22;24079;51.824;4.682;2023-02-12T06:26:27;8.20;99.90
37998;DHT22;24079;51.824;4.682;2023-02-12T06:28:53;8.10;99.90
37998;DHT22;24079;51.824;4.682;2023-02-12T06:33:47;8.10;99.90
37998;DHT22;24079;51.824;4.682;2023-02-12T06:36:13;8.10;99.90
37998;DHT22;24079;51.824;4.682;2023-02-12T06:38:39;8.10;99.90
37998;DHT22;24079;51.824;4.682;2023-02-12T06:41:05;8.10;99.90
37998;DHT22;24079;51.824;4.682;2023-02-12T06:43:31;8.00;99.90
37998;DHT22;24079;51.824;4.682;2023-02-12T06:46:00;8.10;99.90
37998;DHT22;24079;51.824;4.682;2023-02-12T06:48:26;8.10;99.90
37998;DHT22;24079;51.824;4.682;2023-02-12T06:50:52;8.20;99.90
37998;DHT22;24079;51.824;4.682;2023-02-12T06:53:18;8.10;99.90
37998;DHT22;24079;51.824;4.682;2023-02-12T06:55:43;8.10;99.90
37998;DHT22;24079;51.824;4.682;2023-02-12T06:58:09;8.10;99.90
37998;DHT22;24079;51.824;4.682;2023-02-12T07:00:34;8.10;99.90
37998;DHT22;24079;51.824;4.682;2023-02-12T07:03:00;8.10;99.90
37998;DHT22;24079;51.824;4.682;2023-02-12T07:05:26;8.10;99.90
37998;DHT22;24079;51.824;4.682;2023-02-12T07:07:51;8.10;99.90
37998;DHT22;24079;51.824;4.682;2023-02-12T07:10:17;8.10;99.90
37998;DHT22;24079;51.824;4.682;2023-02-12T07:12:43;8.00;99.90
37998;DHT22;24079;51.824;4.682;2023-02-12T07:15:09;8.10;99.90
37998;DHT22;24079;51.824;4.682;2023-02-12T07:17:35;8.10;99.90
37998;DHT22;24079;51.824;4.682;2023-02-12T07:20:01;8.10;99.90
37998;DHT22;24079;51.824;4.682;2023-02-12T07:22:27;8.10;99.90
37998;DHT22;24079;51.824;4.682;2023-02-12T07:24:53;8.10;99.90
37998;DHT22;24079;51.824;4.682;2023-02-12T07:27:18;8.20;99.90
37998;DHT22;24079;51.824;4.682;2023-02-12T07:29:44;8.20;99.90
37998;DHT22;24079;51.824;4.682;2023-02-12T07:32:09;8.10;99.90
37998;DHT22;24079;51.824;4.682;2023-02-12T07:34:35;8.20;99.90
37998;DHT22;24079;51.824;4.682;2023-02-12T07:37:01;8.20;99.90
37998;DHT22;24079;51.824;4.682;2023-02-12T07:39:26;8.10;99.90
37998;DHT22;24079;51.824;4.682;2023-02-12T07:41:52;8.10;99.90
37998;DHT22;24079;51.824;4.682;2023-02-12T07:44:18;8.10;99.90
37998;DHT22;24079;51.824;4.682;2023-02-12T07:46:46;8.10;99.90
37998;DHT22;24079;51.824;4.682;2023-02-12T07:49:18;8.20;99.90
37998;DHT22;24079;51.824;4.682;2023-02-12T07:51:44;8.10;99.90
37998;DHT22;24079;51.824;4.682;2023-02-12T07:54:11;8.20;99.90
37998;DHT22;24079;51.824;4.682;2023-02-12T07:56:38;8.20;99.90
37998;DHT22;24079;51.824;4.682;2023-02-12T07:59:07;8.20;99.90
37998;DHT22;24079;51.824;4.682;2023-02-12T08:01:38;8.10;99.90
37998;DHT22;24079;51.824;4.682;2023-02-12T08:04:10;8.10;99.90
37998;DHT22;24079;51.824;4.682;2023-02-12T08:06:43;8.00;99.90
37998;DHT22;24079;51.824;4.682;2023-02-12T08:09:12;8.10;99.90
37998;DHT22;24079;51.824;4.682;2023-02-12T08:11:40;8.20;99.90
37998;DHT22;24079;51.824;4.682;2023-02-12T08:14:06;8.10;99.90
37998;DHT22;24079;51.824;4.682;2023-02-12T08:16:36;8.10;99.90
37998;DHT22;24079;51.824;4.682;2023-02-12T08:19:02;8.20;99.90
37998;DHT22;24079;51.824;4.682;2023-02-12T08:21:28;8.20;99.90
37998;DHT22;24079;51.824;4.682;2023-02-12T08:23:55;8.10;99.90
37998;DHT22;24079;51.824;4.682;2023-02-12T08:26:22;8.20;99.90
37998;DHT22;24079;51.824;4.682;2023-02-12T08:29:00;8.30;99.90
37998;DHT22;24079;51.824;4.682;2023-02-12T08:31:29;8.40;99.90
37998;DHT22;24079;51.824;4.682;2023-02-12T08:33:55;8.40;99.90
37998;DHT22;24079;51.824;4.682;2023-02-12T08:36:38;8.40;99.90
37998;DHT22;24079;51.824;4.682;2023-02-12T08:39:05;8.40;99.90
37998;DHT22;24079;51.824;4.682;2023-02-12T08:41:31;8.50;99.90
37998;DHT22;24079;51.824;4.682;2023-02-12T08:43:59;8.50;99.90
37998;DHT22;24079;51.824;4.682;2023-02-12T08:46:27;8.60;99.90
37998;DHT22;24079;51.824;4.682;2023-02-12T08:48:58;8.50;99.90
37998;DHT22;24079;51.824;4.682;2023-02-12T08:51:30;8.50;99.90
37998;DHT22;24079;51.824;4.682;2023-02-12T08:53:57;8.50;99.90
37998;DHT22;24079;51.824;4.682;2023-02-12T08:56:24;8.60;99.90
37998;DHT22;24079;51.824;4.682;2023-02-12T08:58:50;8.60;99.90
37998;DHT22;24079;51.824;4.682;2023-02-12T09:01:19;8.60;99.90
37998;DHT22;24079;51.824;4.682;2023-02-12T09:03:46;8.70;99.90
37998;DHT22;24079;51.824;4.682;2023-02-12T09:06:12;8.70;99.90
37998;DHT22;24079;51.824;4.682;2023-02-12T09:08:39;8.70;99.90
37998;DHT22;24079;51.824;4.682;2023-02-12T09:11:08;8.60;99.90
37998;DHT22;24079;51.824;4.682;2023-02-12T09:13:34;8.60;99.90
37998;DHT22;24079;51.824;4.682;2023-02-12T09:16:01;8.60;99.90
37998;DHT22;24079;51.824;4.682;2023-02-12T09:18:28;8.70;99.90
37998;DHT22;24079;51.824;4.682;2023-02-12T09:20:54;8.70;99.90
37998;DHT22;24079;51.824;4.682;2023-02-12T09:23:19;8.80;99.90
37998;DHT22;24079;51.824;4.682;2023-02-12T09:25:46;8.90;99.90
37998;DHT22;24079;51.824;4.682;2023-02-12T09:28:13;9.00;99.90
37998;DHT22;24079;51.824;4.682;2023-02-12T09:30:39;8.90;99.90
37998;DHT22;24079;51.824;4.682;2023-02-12T09:33:06;9.00;99.90
37998;DHT22;24079;51.824;4.682;2023-02-12T09:35:35;9.10;99.90
37998;DHT22;24079;51.824;4.682;2023-02-12T09:38:02;9.00;99.90
37998;DHT22;24079;51.824;4.682;2023-02-12T09:43:41;9.10;99.90
37998;DHT22;24079;51.824;4.682;2023-02-12T09:46:28;9.00;99.90
37998;DHT22;24079;51.824;4.682;2023-02-12T09:49:23;9.00;99.90
37998;DHT22;24079;51.824;4.682;2023-02-12T09:51:51;9.10;99.90
37998;DHT22;24079;51.824;4.682;2023-02-12T09:54:27;9.10;99.90
37998;DHT22;24079;51.824;4.682;2023-02-12T09:57:00;9.20;99.90
37998;DHT22;24079;51.824;4.682;2023-02-12T09:59:40;9.20;99.90
37998;DHT22;24079;51.824;4.682;2023-02-12T10:02:14;9.30;99.90
37998;DHT22;24079;51.824;4.682;2023-02-12T10:04:46;9.30;99.90
37998;DHT22;24079;51.824;4.682;2023-02-12T10:07:21;9.40;99.90
37998;DHT22;24079;51.824;4.682;2023-02-12T10:12:49;9.30;99.90
37998;DHT22;24079;51.824;4.682;2023-02-12T10:15:31;9.40;99.90
37998;DHT22;24079;51.824;4.682;2023-02-12T10:19:12;9.40;99.90
37998;DHT22;24079;51.824;4.682;2023-02-12T10:23:54;9.40;99.90
37998;DHT22;24079;51.824;4.682;2023-02-12T10:26:24;9.50;99.90
37998;DHT22;24079;51.824;4.682;2023-02-12T10:28:53;9.50;99.90
37998;DHT22;24079;51.824;4.682;2023-02-12T10:31:31;9.60;99.90
37998;DHT22;24079;51.824;4.682;2023-02-12T10:33:57;9.60;99.90
37998;DHT22;24079;51.824;4.682;2023-02-12T10:36:42;9.70;99.90
37998;DHT22;24079;51.824;4.682;2023-02-12T10:39:21;9.70;99.90
37998;DHT22;24079;51.824;4.682;2023-02-12T10:44:26;9.60;99.90
37998;DHT22;24079;51.824;4.682;2023-02-12T10:46:52;9.70;99.90
37998;DHT22;24079;51.824;4.682;2023-02-12T10:49:19;9.60;99.90
37998;DHT22;24079;51.824;4.682;2023-02-12T10:57:27;9.80;99.90
37998;DHT22;24079;51.824;4.682;2023-02-12T10:59:53;9.90;99.90
37998;DHT22;24079;51.824;4.682;2023-02-12T11:02:31;9.90;99.90
37998;DHT22;24079;51.824;4.682;2023-02-12T11:04:58;9.90;99.90
37998;DHT22;24079;51.824;4.682;2023-02-12T11:07:26;9.90;99.90
37998;DHT22;24079;51.824;4.682;2023-02-12T11:09:54;9.90;99.90
37998;DHT22;24079;51.824;4.682;2023-02-12T11:12:35;10.00;99.90
37998;DHT22;24079;51.824;4.682;2023-02-12T11:15:13;10.00;99.90
37998;DHT22;24079;51.824;4.682;2023-02-12T11:17:42;10.10;99.90
37998;DHT22;24079;51.824;4.682;2023-02-12T11:20:18;10.10;99.90
37998;DHT22;24079;51.824;4.682;2023-02-12T11:23:00;10.10;99.90
37998;DHT22;24079;51.824;4.682;2023-02-12T11:25:29;10.00;99.90
37998;DHT22;24079;51.824;4.682;2023-02-12T11:28:14;9.90;99.90
37998;DHT22;24079;51.824;4.682;2023-02-12T11:31:00;10.00;99.90
37998;DHT22;24079;51.824;4.682;2023-02-12T11:33:27;9.90;99.90
37998;DHT22;24079;51.824;4.682;2023-02-12T11:36:19;10.00;99.90
37998;DHT22;24079;51.824;4.682;2023-02-12T11:38:55;10.00;99.90
37998;DHT22;24079;51.824;4.682;2023-02-12T11:43:51;10.00;99.90
37998;DHT22;24079;51.824;4.682;2023-02-12T11:46:26;10.00;99.90
37998;DHT22;24079;51.824;4.682;2023-02-12T11:48:53;10.20;99.90
37998;DHT22;24079;51.824;4.682;2023-02-12T11:51:26;10.30;99.90
37998;DHT22;24079;51.824;4.682;2023-02-12T11:53:55;10.40;99.90
37998;DHT22;24079;51.824;4.682;2023-02-12T11:56:22;10.50;99.90
37998;DHT22;24079;51.824;4.682;2023-02-12T11:58:48;10.60;99.90
37998;DHT22;24079;51.824;4.682;2023-02-12T12:01:27;10.40;99.90
37998;DHT22;24079;51.824;4.682;2023-02-12T12:04:16;10.40;99.90
37998;DHT22;24079;51.824;4.682;2023-02-12T12:06:56;10.40;99.90
37998;DHT22;24079;51.824;4.682;2023-02-12T12:09:40;10.40;99.90
37998;DHT22;24079;51.824;4.682;2023-02-12T12:12:12;10.40;99.90
37998;DHT22;24079;51.824;4.682;2023-02-12T12:15:05;10.40;99.90
37998;DHT22;24079;51.824;4.682;2023-02-12T12:18:43;10.50;99.90
37998;DHT22;24079;51.824;4.682;2023-02-12T12:21:22;10.40;99.90
37998;DHT22;24079;51.824;4.682;2023-02-12T12:24:08;10.50;99.90
37998;DHT22;24079;51.824;4.682;2023-02-12T12:26:38;10.40;99.90
37998;DHT22;24079;51.824;4.682;2023-02-12T12:29:21;10.40;99.90
37998;DHT22;24079;51.824;4.682;2023-02-12T12:31:56;10.50;99.90
37998;DHT22;24079;51.824;4.682;2023-02-12T12:34:28;10.50;99.90
37998;DHT22;24079;51.824;4.682;2023-02-12T12:40:46;10.30;99.90
37998;DHT22;24079;51.824;4.682;2023-02-12T12:43:17;10.10;99.90
37998;DHT22;24079;51.824;4.682;2023-02-12T12:59:59;10.20;99.90
37998;DHT22;24079;51.824;4.682;2023-02-12T13:05:22;10.20;99.90
37998;DHT22;24079;51.824;4.682;2023-02-12T13:10:54;10.20;99.90
37998;DHT22;24079;51.824;4.682;2023-02-12T13:13:44;10.30;99.90
37998;DHT22;24079;51.824;4.682;2023-02-12T13:19:03;10.30;99.90
37998;DHT22;24079;51.824;4.682;2023-02-12T13:21:33;10.30;99.90
37998;DHT22;24079;51.824;4.682;2023-02-12T13:26:48;10.20;99.90
37998;DHT22;24079;51.824;4.682;2023-02-12T13:29:25;10.20;99.90
37998;DHT22;24079;51.824;4.682;2023-02-12T13:34:56;10.20;99.90
37998;DHT22;24079;51.824;4.682;2023-02-12T13:37:38;10.30;99.90
37998;DHT22;24079;51.824;4.682;2023-02-12T13:40:12;10.30;99.90
37998;DHT22;24079;51.824;4.682;2023-02-12T13:43:29;10.20;99.90
37998;DHT22;24079;51.824;4.682;2023-02-12T13:46:59;10.20;99.90
37998;DHT22;24079;51.824;4.682;2023-02-12T13:55:36;10.20;99.90
37998;DHT22;24079;51.824;4.682;2023-02-12T14:03:24;10.20;99.90
37998;DHT22;24079;51.824;4.682;2023-02-12T14:08:40;10.20;99.90
37998;DHT22;24079;51.824;4.682;2023-02-12T14:11:20;10.20;99.90
37998;DHT22;24079;51.824;4.682;2023-02-12T14:14:05;10.30;99.90
37998;DHT22;24079;51.824;4.682;2023-02-12T14:22:55;10.30;99.90
37998;DHT22;24079;51.824;4.682;2023-02-12T14:25:24;10.30;99.90
37998;DHT22;24079;51.824;4.682;2023-02-12T14:27:56;10.20;99.90
37998;DHT22;24079;51.824;4.682;2023-02-12T14:30:36;10.10;99.90
37998;DHT22;24079;51.824;4.682;2023-02-12T14:35:34;10.20;99.90
37998;DHT22;24079;51.824;4.682;2023-02-12T14:43:01;10.00;99.90
37998;DHT22;24079;51.824;4.682;2023-02-12T14:45:35;10.00;99.90
37998;DHT22;24079;51.824;4.682;2023-02-12T14:48:03;10.10;99.90
37998;DHT22;24079;51.824;4.682;2023-02-12T14:50:43;10.20;99.90
37998;DHT22;24079;51.824;4.682;2023-02-12T14:53:34;10.10;99.90
37998;DHT22;24079;51.824;4.682;2023-02-12T14:56:02;10.20;99.90
37998;DHT22;24079;51.824;4.682;2023-02-12T14:58:28;10.20;99.90
37998;DHT22;24079;51.824;4.682;2023-02-12T15:00:58;10.10;99.90
37998;DHT22;24079;51.824;4.682;2023-02-12T15:03:53;10.20;99.90
37998;DHT22;24079;51.824;4.682;2023-02-12T15:06:21;10.20;99.90
37998;DHT22;24079;51.824;4.682;2023-02-12T15:08:55;10.20;99.90
37998;DHT22;24079;51.824;4.682;2023-02-12T15:11:44;10.20;99.90
37998;DHT22;24079;51.824;4.682;2023-02-12T15:14:30;10.10;99.90
37998;DHT22;24079;51.824;4.682;2023-02-12T15:19:55;10.00;99.90
37998;DHT22;24079;51.824;4.682;2023-02-12T15:22:31;10.00;99.90
37998;DHT22;24079;51.824;4.682;2023-02-12T15:25:15;9.90;99.90
37998;DHT22;24079;51.824;4.682;2023-02-12T15:27:46;9.90;99.90
37998;DHT22;24079;51.824;4.682;2023-02-12T15:30:19;9.90;99.90
37998;DHT22;24079;51.824;4.682;2023-02-12T15:32:47;9.90;99.90
37998;DHT22;24079;51.824;4.682;2023-02-12T15:35:22;9.90;99.90
37998;DHT22;24079;51.824;4.682;2023-02-12T15:37:49;9.90;99.90
37998;DHT22;24079;51.824;4.682;2023-02-12T15:40:15;9.90;99.90
37998;DHT22;24079;51.824;4.682;2023-02-12T15:42:56;9.90;99.90
37998;DHT22;24079;51.824;4.682;2023-02-12T15:45:31;9.80;99.90
37998;DHT22;24079;51.824;4.682;2023-02-12T15:50:26;9.90;99.90
37998;DHT22;24079;51.824;4.682;2023-02-12T15:52:52;9.90;99.90
37998;DHT22;24079;51.824;4.682;2023-02-12T15:55:21;9.90;99.90
37998;DHT22;24079;51.824;4.682;2023-02-12T15:57:51;9.90;99.90
37998;DHT22;24079;51.824;4.682;2023-02-12T16:02:53;9.80;99.90
37998;DHT22;24079;51.824;4.682;2023-02-12T16:05:20;9.80;99.90
37998;DHT22;24079;51.824;4.682;2023-02-12T16:07:46;9.80;99.90
37998;DHT22;24079;51.824;4.682;2023-02-12T16:10:15;9.80;99.90
37998;DHT22;24079;51.824;4.682;2023-02-12T16:12:43;9.80;99.90
37998;DHT22;24079;51.824;4.682;2023-02-12T16:15:31;9.80;99.90
37998;DHT22;24079;51.824;4.682;2023-02-12T16:17:59;9.70;99.90
37998;DHT22;24079;51.824;4.682;2023-02-12T16:20:28;9.70;99.90
37998;DHT22;24079;51.824;4.682;2023-02-12T16:22:56;9.70;99.90
37998;DHT22;24079;51.824;4.682;2023-02-12T16:25:25;9.70;99.90
37998;DHT22;24079;51.824;4.682;2023-02-12T16:28:17;9.70;99.90
37998;DHT22;24079;51.824;4.682;2023-02-12T16:30:47;9.70;99.90
37998;DHT22;24079;51.824;4.682;2023-02-12T16:36:13;9.50;99.90
37998;DHT22;24079;51.824;4.682;2023-02-12T16:38:42;9.40;99.90
37998;DHT22;24079;51.824;4.682;2023-02-12T16:41:24;9.60;99.90
37998;DHT22;24079;51.824;4.682;2023-02-12T16:46:27;9.90;99.90
37998;DHT22;24079;51.824;4.682;2023-02-12T16:48:55;9.90;99.90
37998;DHT22;24079;51.824;4.682;2023-02-12T16:51:27;9.80;99.90
37998;DHT22;24079;51.824;4.682;2023-02-12T16:53:55;9.80;99.90
37998;DHT22;24079;51.824;4.682;2023-02-12T16:56:23;9.80;99.90
37998;DHT22;24079;51.824;4.682;2023-02-12T16:58:52;9.70;99.90
37998;DHT22;24079;51.824;4.682;2023-02-12T17:01:30;9.50;99.90
37998;DHT22;24079;51.824;4.682;2023-02-12T17:03:58;9.50;99.90
37998;DHT22;24079;51.824;4.682;2023-02-12T17:06:27;9.50;99.90
37998;DHT22;24079;51.824;4.682;2023-02-12T17:08:53;9.40;99.90
37998;DHT22;24079;51.824;4.682;2023-02-12T17:11:20;9.30;99.90
37998;DHT22;24079;51.824;4.682;2023-02-12T17:13:49;9.20;99.90
37998;DHT22;24079;51.824;4.682;2023-02-12T17:16:15;9.20;99.90
37998;DHT22;24079;51.824;4.682;2023-02-12T17:18:41;9.20;99.90
37998;DHT22;24079;51.824;4.682;2023-02-12T17:21:30;9.20;99.90
37998;DHT22;24079;51.824;4.682;2023-02-12T17:23:54;9.20;99.90
37998;DHT22;24079;51.824;4.682;2023-02-12T17:26:21;9.20;99.90
37998;DHT22;24079;51.824;4.682;2023-02-12T17:28:47;9.20;99.90
37998;DHT22;24079;51.824;4.682;2023-02-12T17:31:13;9.20;99.90
37998;DHT22;24079;51.824;4.682;2023-02-12T17:33:38;9.20;99.90
37998;DHT22;24079;51.824;4.682;2023-02-12T17:36:04;9.20;99.90
37998;DHT22;24079;51.824;4.682;2023-02-12T17:38:30;9.20;99.90
37998;DHT22;24079;51.824;4.682;2023-02-12T17:40:56;9.20;99.90
37998;DHT22;24079;51.824;4.682;2023-02-12T17:43:22;9.20;99.90
37998;DHT22;24079;51.824;4.682;2023-02-12T17:45:47;9.20;99.90
37998;DHT22;24079;51.824;4.682;2023-02-12T17:48:14;9.20;99.90
37998;DHT22;24079;51.824;4.682;2023-02-12T17:50:41;9.20;99.90
37998;DHT22;24079;51.824;4.682;2023-02-12T17:53:07;9.20;99.90
37998;DHT22;24079;51.824;4.682;2023-02-12T17:55:37;9.10;99.90
37998;DHT22;24079;51.824;4.682;2023-02-12T17:58:04;9.10;99.90
37998;DHT22;24079;51.824;4.682;2023-02-12T18:00:29;9.10;99.90
37998;DHT22;24079;51.824;4.682;2023-02-12T18:02:55;9.10;99.90
37998;DHT22;24079;51.824;4.682;2023-02-12T18:05:21;9.10;99.90
37998;DHT22;24079;51.824;4.682;2023-02-12T18:07:47;9.10;99.90
37998;DHT22;24079;51.824;4.682;2023-02-12T18:10:13;9.10;99.90
37998;DHT22;24079;51.824;4.682;2023-02-12T18:12:38;9.10;99.90
37998;DHT22;24079;51.824;4.682;2023-02-12T18:15:06;9.10;99.90
37998;DHT22;24079;51.824;4.682;2023-02-12T18:17:31;9.10;99.90
37998;DHT22;24079;51.824;4.682;2023-02-12T18:19:57;9.10;99.90
37998;DHT22;24079;51.824;4.682;2023-02-12T18:22:23;9.10;99.90
37998;DHT22;24079;51.824;4.682;2023-02-12T18:24:49;9.10;99.90
37998;DHT22;24079;51.824;4.682;2023-02-12T18:27:15;9.10;99.90
37998;DHT22;24079;51.824;4.682;2023-02-12T18:29:42;9.10;99.90
37998;DHT22;24079;51.824;4.682;2023-02-12T18:32:07;9.20;99.90